KBJI/BJI METAR and TAF weather

Enter ICAO airport designator
Station Type Date Time Source
KBJI METAR 2024/05/28 22:35 UTC NOAA

KBJI 282235Z AUTO 36010KT 10SM BKN050 16/06 A3017 RMK AO2 T01560063


Station Type Date Time Source
KBJI Decoded METAR 2024/05/28 22:35 UTC NOAA

Bemidji, MN, United States (KBJI) 47-30N 094-56W 420M
May 28, 2024 - 06:35 PM EDT / 2024.05.28 2235 UTC
Wind: from the N (360 degrees) at 12 MPH (10 KT):0
Visibility: 10 mile(s):0
Sky conditions: mostly cloudy
Temperature: 60.1 F (15.6 C)
Dew Point: 43.3 F (6.3 C)
Relative Humidity: 53%
Pressure (altimeter): 30.17 in. Hg (1021 hPa)
ob: KBJI 282235Z AUTO 36010KT 10SM BKN050 16/06 A3017 RMK AO2 T01560063
cycle: 22

Station Type Date Time Source
KBJI TAF 2024/05/28 20:45 UTC NOAA